sensor_id;sensor_type;location;lat;lon;timestamp;P1;P2;P0
64138;PMS5003;50435;43.700;-79.318;2022-10-16T00:00:41;5;5;
64138;PMS5003;50435;43.700;-79.318;2022-10-16T00:03:09;5;4;
64138;PMS5003;50435;43.700;-79.318;2022-10-16T00:05:38;4;4;
64138;PMS5003;50435;43.700;-79.318;2022-10-16T00:08:07;4;4;
64138;PMS5003;50435;43.700;-79.318;2022-10-16T00:10:35;6;4;
64138;PMS5003;50435;43.700;-79.318;2022-10-16T00:13:03;3;3;
64138;PMS5003;50435;43.700;-79.318;2022-10-16T00:15:32;6;5;
64138;PMS5003;50435;43.700;-79.318;2022-10-16T00:18:00;4;4;
64138;PMS5003;50435;43.700;-79.318;2022-10-16T00:20:28;6;6;
64138;PMS5003;50435;43.700;-79.318;2022-10-16T00:22:56;4;4;
64138;PMS5003;50435;43.700;-79.318;2022-10-16T00:25:24;6;6;
64138;PMS5003;50435;43.700;-79.318;2022-10-16T00:27:52;5;5;
64138;PMS5003;50435;43.700;-79.318;2022-10-16T00:30:20;6;3;
64138;PMS5003;50435;43.700;-79.318;2022-10-16T00:32:48;4;4;
64138;PMS5003;50435;43.700;-79.318;2022-10-16T00:35:15;4;4;
64138;PMS5003;50435;43.700;-79.318;2022-10-16T00:37:43;4;4;
64138;PMS5003;50435;43.700;-79.318;2022-10-16T00:40:11;5;5;
64138;PMS5003;50435;43.700;-79.318;2022-10-16T00:42:39;7;5;
64138;PMS5003;50435;43.700;-79.318;2022-10-16T00:45:08;5;5;
64138;PMS5003;50435;43.700;-79.318;2022-10-16T00:47:37;3;3;
64138;PMS5003;50435;43.700;-79.318;2022-10-16T00:50:08;4;4;
64138;PMS5003;50435;43.700;-79.318;2022-10-16T00:52:38;4;4;
64138;PMS5003;50435;43.700;-79.318;2022-10-16T00:55:10;7;5;
64138;PMS5003;50435;43.700;-79.318;2022-10-16T00:57:37;3;3;
64138;PMS5003;50435;43.700;-79.318;2022-10-16T01:00:07;3;2;
64138;PMS5003;50435;43.700;-79.318;2022-10-16T01:02:37;5;4;
64138;PMS5003;50435;43.700;-79.318;2022-10-16T01:05:05;5;5;
64138;PMS5003;50435;43.700;-79.318;2022-10-16T01:07:36;3;3;
64138;PMS5003;50435;43.700;-79.318;2022-10-16T01:10:14;4;3;
64138;PMS5003;50435;43.700;-79.318;2022-10-16T01:12:52;3;3;
64138;PMS5003;50435;43.700;-79.318;2022-10-16T01:15:25;3;3;
64138;PMS5003;50435;43.700;-79.318;2022-10-16T01:17:57;8;4;
64138;PMS5003;50435;43.700;-79.318;2022-10-16T01:20:29;5;5;
64138;PMS5003;50435;43.700;-79.318;2022-10-16T01:23:03;4;4;
64138;PMS5003;50435;43.700;-79.318;2022-10-16T01:25:39;5;5;
64138;PMS5003;50435;43.700;-79.318;2022-10-16T01:28:24;3;3;
64138;PMS5003;50435;43.700;-79.318;2022-10-16T01:30:58;5;5;
64138;PMS5003;50435;43.700;-79.318;2022-10-16T01:33:28;4;4;
64138;PMS5003;50435;43.700;-79.318;2022-10-16T01:36:02;4;3;
64138;PMS5003;50435;43.700;-79.318;2022-10-16T01:38:36;4;4;
64138;PMS5003;50435;43.700;-79.318;2022-10-16T01:41:06;3;3;
64138;PMS5003;50435;43.700;-79.318;2022-10-16T01:43:39;4;4;
64138;PMS5003;50435;43.700;-79.318;2022-10-16T01:46:10;7;5;
64138;PMS5003;50435;43.700;-79.318;2022-10-16T01:48:42;5;5;
64138;PMS5003;50435;43.700;-79.318;2022-10-16T01:51:10;5;5;
64138;PMS5003;50435;43.700;-79.318;2022-10-16T01:53:41;4;3;
64138;PMS5003;50435;43.700;-79.318;2022-10-16T01:56:14;5;5;
64138;PMS5003;50435;43.700;-79.318;2022-10-16T01:58:45;5;4;
64138;PMS5003;50435;43.700;-79.318;2022-10-16T02:01:16;5;4;
64138;PMS5003;50435;43.700;-79.318;2022-10-16T02:03:48;5;5;
64138;PMS5003;50435;43.700;-79.318;2022-10-16T02:06:20;6;5;
64138;PMS5003;50435;43.700;-79.318;2022-10-16T02:08:48;6;6;
64138;PMS5003;50435;43.700;-79.318;2022-10-16T02:11:16;5;5;
64138;PMS5003;50435;43.700;-79.318;2022-10-16T02:13:45;5;5;
64138;PMS5003;50435;43.700;-79.318;2022-10-16T02:16:14;5;5;
64138;PMS5003;50435;43.700;-79.318;2022-10-16T02:18:42;5;5;
64138;PMS5003;50435;43.700;-79.318;2022-10-16T02:21:12;8;7;
64138;PMS5003;50435;43.700;-79.318;2022-10-16T02:23:45;8;7;
64138;PMS5003;50435;43.700;-79.318;2022-10-16T02:26:19;6;5;
64138;PMS5003;50435;43.700;-79.318;2022-10-16T02:28:53;11;11;
64138;PMS5003;50435;43.700;-79.318;2022-10-16T02:31:26;8;8;
64138;PMS5003;50435;43.700;-79.318;2022-10-16T02:33:58;6;6;
64138;PMS5003;50435;43.700;-79.318;2022-10-16T02:36:27;10;10;
64138;PMS5003;50435;43.700;-79.318;2022-10-16T02:38:56;7;6;
64138;PMS5003;50435;43.700;-79.318;2022-10-16T02:41:25;4;4;
64138;PMS5003;50435;43.700;-79.318;2022-10-16T02:43:53;6;6;
64138;PMS5003;50435;43.700;-79.318;2022-10-16T02:46:21;7;5;
64138;PMS5003;50435;43.700;-79.318;2022-10-16T02:48:49;7;5;
64138;PMS5003;50435;43.700;-79.318;2022-10-16T02:51:16;6;6;
64138;PMS5003;50435;43.700;-79.318;2022-10-16T02:53:44;8;8;
64138;PMS5003;50435;43.700;-79.318;2022-10-16T02:56:12;9;6;
64138;PMS5003;50435;43.700;-79.318;2022-10-16T02:58:40;6;6;
64138;PMS5003;50435;43.700;-79.318;2022-10-16T03:01:07;7;7;
64138;PMS5003;50435;43.700;-79.318;2022-10-16T03:03:34;7;6;
64138;PMS5003;50435;43.700;-79.318;2022-10-16T03:06:02;5;5;
64138;PMS5003;50435;43.700;-79.318;2022-10-16T03:08:30;9;7;
64138;PMS5003;50435;43.700;-79.318;2022-10-16T03:10:58;6;6;
64138;PMS5003;50435;43.700;-79.318;2022-10-16T03:13:25;5;5;
64138;PMS5003;50435;43.700;-79.318;2022-10-16T03:15:53;5;5;
64138;PMS5003;50435;43.700;-79.318;2022-10-16T03:18:21;7;5;
64138;PMS5003;50435;43.700;-79.318;2022-10-16T03:20:49;7;6;
64138;PMS5003;50435;43.700;-79.318;2022-10-16T03:23:17;6;6;
64138;PMS5003;50435;43.700;-79.318;2022-10-16T03:25:45;5;5;
64138;PMS5003;50435;43.700;-79.318;2022-10-16T03:28:12;5;5;
64138;PMS5003;50435;43.700;-79.318;2022-10-16T03:30:39;11;9;
64138;PMS5003;50435;43.700;-79.318;2022-10-16T03:33:07;4;4;
64138;PMS5003;50435;43.700;-79.318;2022-10-16T03:35:34;7;6;
64138;PMS5003;50435;43.700;-79.318;2022-10-16T03:38:02;10;7;
64138;PMS5003;50435;43.700;-79.318;2022-10-16T03:40:30;12;12;
64138;PMS5003;50435;43.700;-79.318;2022-10-16T03:42:57;6;6;
64138;PMS5003;50435;43.700;-79.318;2022-10-16T03:45:25;9;7;
64138;PMS5003;50435;43.700;-79.318;2022-10-16T03:47:52;6;6;
64138;PMS5003;50435;43.700;-79.318;2022-10-16T03:50:19;7;7;
64138;PMS5003;50435;43.700;-79.318;2022-10-16T03:52:47;6;6;
64138;PMS5003;50435;43.700;-79.318;2022-10-16T03:55:14;9;9;
64138;PMS5003;50435;43.700;-79.318;2022-10-16T03:57:42;6;5;
64138;PMS5003;50435;43.700;-79.318;2022-10-16T04:00:10;10;6;
64138;PMS5003;50435;43.700;-79.318;2022-10-16T04:02:39;7;7;
64138;PMS5003;50435;43.700;-79.318;2022-10-16T04:05:07;5;5;
64138;PMS5003;50435;43.700;-79.318;2022-10-16T04:07:35;9;6;
64138;PMS5003;50435;43.700;-79.318;2022-10-16T04:10:04;5;5;
64138;PMS5003;50435;43.700;-79.318;2022-10-16T04:12:32;6;6;
64138;PMS5003;50435;43.700;-79.318;2022-10-16T04:14:59;7;7;
64138;PMS5003;50435;43.700;-79.318;2022-10-16T04:17:27;7;7;
64138;PMS5003;50435;43.700;-79.318;2022-10-16T04:19:55;10;7;
64138;PMS5003;50435;43.700;-79.318;2022-10-16T04:22:22;9;9;
64138;PMS5003;50435;43.700;-79.318;2022-10-16T04:24:49;6;5;
64138;PMS5003;50435;43.700;-79.318;2022-10-16T04:27:16;7;6;
64138;PMS5003;50435;43.700;-79.318;2022-10-16T04:29:43;6;6;
64138;PMS5003;50435;43.700;-79.318;2022-10-16T04:32:10;5;5;
64138;PMS5003;50435;43.700;-79.318;2022-10-16T04:34:38;9;5;
64138;PMS5003;50435;43.700;-79.318;2022-10-16T04:37:06;7;6;
64138;PMS5003;50435;43.700;-79.318;2022-10-16T04:39:33;9;9;
64138;PMS5003;50435;43.700;-79.318;2022-10-16T04:42:01;5;5;
64138;PMS5003;50435;43.700;-79.318;2022-10-16T04:44:28;10;7;
64138;PMS5003;50435;43.700;-79.318;2022-10-16T04:46:56;12;11;
64138;PMS5003;50435;43.700;-79.318;2022-10-16T04:49:23;6;6;
64138;PMS5003;50435;43.700;-79.318;2022-10-16T04:51:50;5;5;
64138;PMS5003;50435;43.700;-79.318;2022-10-16T04:54:18;6;6;
64138;PMS5003;50435;43.700;-79.318;2022-10-16T04:56:46;7;7;
64138;PMS5003;50435;43.700;-79.318;2022-10-16T04:59:13;7;7;
64138;PMS5003;50435;43.700;-79.318;2022-10-16T05:01:41;6;6;
64138;PMS5003;50435;43.700;-79.318;2022-10-16T05:04:09;12;10;
64138;PMS5003;50435;43.700;-79.318;2022-10-16T05:06:37;6;5;
64138;PMS5003;50435;43.700;-79.318;2022-10-16T05:09:04;9;7;
64138;PMS5003;50435;43.700;-79.318;2022-10-16T05:11:32;9;9;
64138;PMS5003;50435;43.700;-79.318;2022-10-16T05:14:00;9;7;
64138;PMS5003;50435;43.700;-79.318;2022-10-16T05:16:28;11;9;
64138;PMS5003;50435;43.700;-79.318;2022-10-16T05:18:56;5;5;
64138;PMS5003;50435;43.700;-79.318;2022-10-16T05:21:24;12;12;
64138;PMS5003;50435;43.700;-79.318;2022-10-16T05:23:52;6;6;
64138;PMS5003;50435;43.700;-79.318;2022-10-16T05:26:20;9;7;
64138;PMS5003;50435;43.700;-79.318;2022-10-16T05:28:48;7;7;
64138;PMS5003;50435;43.700;-79.318;2022-10-16T05:31:16;6;6;
64138;PMS5003;50435;43.700;-79.318;2022-10-16T05:33:44;11;11;
64138;PMS5003;50435;43.700;-79.318;2022-10-16T05:36:11;8;8;
64138;PMS5003;50435;43.700;-79.318;2022-10-16T05:38:39;7;7;
64138;PMS5003;50435;43.700;-79.318;2022-10-16T05:41:07;9;7;
64138;PMS5003;50435;43.700;-79.318;2022-10-16T05:43:35;7;7;
64138;PMS5003;50435;43.700;-79.318;2022-10-16T05:46:03;6;6;
64138;PMS5003;50435;43.700;-79.318;2022-10-16T05:48:32;7;7;
64138;PMS5003;50435;43.700;-79.318;2022-10-16T05:51:00;9;9;
64138;PMS5003;50435;43.700;-79.318;2022-10-16T05:53:30;7;6;
64138;PMS5003;50435;43.700;-79.318;2022-10-16T05:55:59;5;5;
64138;PMS5003;50435;43.700;-79.318;2022-10-16T05:58:28;5;5;
64138;PMS5003;50435;43.700;-79.318;2022-10-16T06:00:58;5;5;
64138;PMS5003;50435;43.700;-79.318;2022-10-16T06:03:26;9;9;
64138;PMS5003;50435;43.700;-79.318;2022-10-16T06:05:54;9;6;
64138;PMS5003;50435;43.700;-79.318;2022-10-16T06:08:22;7;7;
64138;PMS5003;50435;43.700;-79.318;2022-10-16T06:10:59;6;6;
64138;PMS5003;50435;43.700;-79.318;2022-10-16T06:13:27;7;7;
64138;PMS5003;50435;43.700;-79.318;2022-10-16T06:15:56;7;5;
64138;PMS5003;50435;43.700;-79.318;2022-10-16T06:18:25;10;7;
64138;PMS5003;50435;43.700;-79.318;2022-10-16T06:20:53;7;6;
64138;PMS5003;50435;43.700;-79.318;2022-10-16T06:23:21;9;5;
64138;PMS5003;50435;43.700;-79.318;2022-10-16T06:25:49;7;7;
64138;PMS5003;50435;43.700;-79.318;2022-10-16T06:28:16;7;7;
64138;PMS5003;50435;43.700;-79.318;2022-10-16T06:30:44;9;8;
64138;PMS5003;50435;43.700;-79.318;2022-10-16T06:33:11;5;5;
64138;PMS5003;50435;43.700;-79.318;2022-10-16T06:35:39;6;5;
64138;PMS5003;50435;43.700;-79.318;2022-10-16T06:38:07;6;6;
64138;PMS5003;50435;43.700;-79.318;2022-10-16T06:40:34;6;6;
64138;PMS5003;50435;43.700;-79.318;2022-10-16T06:43:01;9;9;
64138;PMS5003;50435;43.700;-79.318;2022-10-16T06:45:28;7;6;
64138;PMS5003;50435;43.700;-79.318;2022-10-16T06:47:56;7;7;
64138;PMS5003;50435;43.700;-79.318;2022-10-16T06:50:23;7;7;
64138;PMS5003;50435;43.700;-79.318;2022-10-16T06:52:50;10;10;
64138;PMS5003;50435;43.700;-79.318;2022-10-16T06:55:17;6;6;
64138;PMS5003;50435;43.700;-79.318;2022-10-16T06:57:46;9;7;
64138;PMS5003;50435;43.700;-79.318;2022-10-16T07:00:14;8;8;
64138;PMS5003;50435;43.700;-79.318;2022-10-16T07:02:42;7;7;
64138;PMS5003;50435;43.700;-79.318;2022-10-16T07:05:09;6;6;
64138;PMS5003;50435;43.700;-79.318;2022-10-16T07:07:36;4;4;
64138;PMS5003;50435;43.700;-79.318;2022-10-16T07:10:04;6;6;
64138;PMS5003;50435;43.700;-79.318;2022-10-16T07:12:31;8;6;
64138;PMS5003;50435;43.700;-79.318;2022-10-16T07:14:58;10;9;
64138;PMS5003;50435;43.700;-79.318;2022-10-16T07:17:25;12;10;
64138;PMS5003;50435;43.700;-79.318;2022-10-16T07:19:53;10;10;
64138;PMS5003;50435;43.700;-79.318;2022-10-16T07:22:21;11;10;
64138;PMS5003;50435;43.700;-79.318;2022-10-16T07:24:48;9;8;
64138;PMS5003;50435;43.700;-79.318;2022-10-16T07:27:15;8;8;
64138;PMS5003;50435;43.700;-79.318;2022-10-16T07:29:42;6;6;
64138;PMS5003;50435;43.700;-79.318;2022-10-16T07:32:09;11;10;
64138;PMS5003;50435;43.700;-79.318;2022-10-16T07:34:36;8;8;
64138;PMS5003;50435;43.700;-79.318;2022-10-16T07:37:03;12;10;
64138;PMS5003;50435;43.700;-79.318;2022-10-16T07:39:31;8;6;
64138;PMS5003;50435;43.700;-79.318;2022-10-16T07:41:58;8;8;
64138;PMS5003;50435;43.700;-79.318;2022-10-16T07:44:25;6;6;
64138;PMS5003;50435;43.700;-79.318;2022-10-16T07:46:52;9;6;
64138;PMS5003;50435;43.700;-79.318;2022-10-16T07:49:19;10;8;
64138;PMS5003;50435;43.700;-79.318;2022-10-16T07:51:46;9;9;
64138;PMS5003;50435;43.700;-79.318;2022-10-16T07:54:14;6;6;
64138;PMS5003;50435;43.700;-79.318;2022-10-16T07:56:41;6;6;
64138;PMS5003;50435;43.700;-79.318;2022-10-16T07:59:08;6;6;
64138;PMS5003;50435;43.700;-79.318;2022-10-16T08:01:35;6;6;
64138;PMS5003;50435;43.700;-79.318;2022-10-16T08:04:02;10;9;
64138;PMS5003;50435;43.700;-79.318;2022-10-16T08:06:30;6;6;
64138;PMS5003;50435;43.700;-79.318;2022-10-16T08:06:35;6;6;
64138;PMS5003;50435;43.700;-79.318;2022-10-16T08:09:04;8;8;
64138;PMS5003;50435;43.700;-79.318;2022-10-16T08:11:31;9;8;
64138;PMS5003;50435;43.700;-79.318;2022-10-16T08:13:59;6;6;
64138;PMS5003;50435;43.700;-79.318;2022-10-16T08:16:26;6;6;
64138;PMS5003;50435;43.700;-79.318;2022-10-16T08:18:54;10;9;
64138;PMS5003;50435;43.700;-79.318;2022-10-16T08:21:22;9;8;
64138;PMS5003;50435;43.700;-79.318;2022-10-16T08:23:50;10;10;
64138;PMS5003;50435;43.700;-79.318;2022-10-16T08:26:19;9;9;
64138;PMS5003;50435;43.700;-79.318;2022-10-16T08:28:49;10;9;
64138;PMS5003;50435;43.700;-79.318;2022-10-16T08:31:16;9;8;
64138;PMS5003;50435;43.700;-79.318;2022-10-16T08:33:44;6;6;
64138;PMS5003;50435;43.700;-79.318;2022-10-16T08:36:12;9;9;
64138;PMS5003;50435;43.700;-79.318;2022-10-16T08:38:40;10;8;
64138;PMS5003;50435;43.700;-79.318;2022-10-16T08:41:15;8;8;
64138;PMS5003;50435;43.700;-79.318;2022-10-16T08:43:57;8;8;
64138;PMS5003;50435;43.700;-79.318;2022-10-16T08:46:41;10;6;
64138;PMS5003;50435;43.700;-79.318;2022-10-16T08:49:17;11;6;
64138;PMS5003;50435;43.700;-79.318;2022-10-16T08:51:45;8;6;
64138;PMS5003;50435;43.700;-79.318;2022-10-16T08:54:15;9;5;
64138;PMS5003;50435;43.700;-79.318;2022-10-16T08:56:54;5;5;
64138;PMS5003;50435;43.700;-79.318;2022-10-16T08:59:21;8;6;
64138;PMS5003;50435;43.700;-79.318;2022-10-16T09:01:49;6;6;
64138;PMS5003;50435;43.700;-79.318;2022-10-16T09:04:31;5;4;
64138;PMS5003;50435;43.700;-79.318;2022-10-16T09:07:14;8;8;
64138;PMS5003;50435;43.700;-79.318;2022-10-16T09:09:51;6;6;
64138;PMS5003;50435;43.700;-79.318;2022-10-16T09:12:28;6;6;
64138;PMS5003;50435;43.700;-79.318;2022-10-16T09:15:04;6;5;
64138;PMS5003;50435;43.700;-79.318;2022-10-16T09:17:43;10;8;
64138;PMS5003;50435;43.700;-79.318;2022-10-16T09:20:19;6;6;
64138;PMS5003;50435;43.700;-79.318;2022-10-16T09:23:07;6;4;
64138;PMS5003;50435;43.700;-79.318;2022-10-16T09:25:42;6;6;
64138;PMS5003;50435;43.700;-79.318;2022-10-16T09:28:11;9;8;
64138;PMS5003;50435;43.700;-79.318;2022-10-16T09:30:38;5;5;
64138;PMS5003;50435;43.700;-79.318;2022-10-16T09:33:06;6;6;
64138;PMS5003;50435;43.700;-79.318;2022-10-16T09:35:36;7;7;
64138;PMS5003;50435;43.700;-79.318;2022-10-16T09:38:07;5;5;
64138;PMS5003;50435;43.700;-79.318;2022-10-16T09:40:35;6;6;
64138;PMS5003;50435;43.700;-79.318;2022-10-16T09:43:12;7;7;
64138;PMS5003;50435;43.700;-79.318;2022-10-16T09:45:55;5;5;
64138;PMS5003;50435;43.700;-79.318;2022-10-16T09:48:25;9;6;
64138;PMS5003;50435;43.700;-79.318;2022-10-16T09:51:04;7;6;
64138;PMS5003;50435;43.700;-79.318;2022-10-16T09:53:38;6;6;
64138;PMS5003;50435;43.700;-79.318;2022-10-16T09:56:09;8;8;
64138;PMS5003;50435;43.700;-79.318;2022-10-16T09:58:38;5;5;
64138;PMS5003;50435;43.700;-79.318;2022-10-16T10:01:11;4;4;
64138;PMS5003;50435;43.700;-79.318;2022-10-16T10:03:40;6;6;
64138;PMS5003;50435;43.700;-79.318;2022-10-16T10:06:17;6;6;
64138;PMS5003;50435;43.700;-79.318;2022-10-16T10:08:58;6;6;
64138;PMS5003;50435;43.700;-79.318;2022-10-16T10:11:46;8;8;
64138;PMS5003;50435;43.700;-79.318;2022-10-16T10:14:19;8;8;
64138;PMS5003;50435;43.700;-79.318;2022-10-16T10:16:50;5;4;
64138;PMS5003;50435;43.700;-79.318;2022-10-16T10:19:19;6;6;
64138;PMS5003;50435;43.700;-79.318;2022-10-16T10:21:49;5;5;
64138;PMS5003;50435;43.700;-79.318;2022-10-16T10:24:17;6;6;
64138;PMS5003;50435;43.700;-79.318;2022-10-16T10:26:49;5;5;
64138;PMS5003;50435;43.700;-79.318;2022-10-16T10:29:25;6;6;
64138;PMS5003;50435;43.700;-79.318;2022-10-16T10:32:01;5;5;
64138;PMS5003;50435;43.700;-79.318;2022-10-16T10:34:45;5;5;
64138;PMS5003;50435;43.700;-79.318;2022-10-16T10:37:27;6;6;
64138;PMS5003;50435;43.700;-79.318;2022-10-16T10:40:06;8;6;
64138;PMS5003;50435;43.700;-79.318;2022-10-16T10:42:43;8;8;
64138;PMS5003;50435;43.700;-79.318;2022-10-16T10:45:20;8;8;
64138;PMS5003;50435;43.700;-79.318;2022-10-16T10:47:56;10;8;
64138;PMS5003;50435;43.700;-79.318;2022-10-16T10:50:34;5;5;
64138;PMS5003;50435;43.700;-79.318;2022-10-16T10:53:09;6;6;
64138;PMS5003;50435;43.700;-79.318;2022-10-16T10:55:46;7;4;
64138;PMS5003;50435;43.700;-79.318;2022-10-16T10:59:28;8;6;
64138;PMS5003;50435;43.700;-79.318;2022-10-16T11:02:04;6;6;
64138;PMS5003;50435;43.700;-79.318;2022-10-16T11:04:45;6;6;
64138;PMS5003;50435;43.700;-79.318;2022-10-16T11:07:25;7;7;
64138;PMS5003;50435;43.700;-79.318;2022-10-16T11:09:57;8;8;
64138;PMS5003;50435;43.700;-79.318;2022-10-16T11:12:28;8;8;
64138;PMS5003;50435;43.700;-79.318;2022-10-16T11:15:01;8;6;
64138;PMS5003;50435;43.700;-79.318;2022-10-16T11:17:35;6;6;
64138;PMS5003;50435;43.700;-79.318;2022-10-16T11:20:13;8;8;
64138;PMS5003;50435;43.700;-79.318;2022-10-16T11:22:44;9;6;
64138;PMS5003;50435;43.700;-79.318;2022-10-16T11:25:19;6;5;
64138;PMS5003;50435;43.700;-79.318;2022-10-16T11:27:50;6;6;
64138;PMS5003;50435;43.700;-79.318;2022-10-16T11:30:24;10;9;
64138;PMS5003;50435;43.700;-79.318;2022-10-16T11:33:00;7;7;
64138;PMS5003;50435;43.700;-79.318;2022-10-16T11:35:39;8;8;
64138;PMS5003;50435;43.700;-79.318;2022-10-16T11:38:12;8;8;
64138;PMS5003;50435;43.700;-79.318;2022-10-16T11:40:50;9;6;
64138;PMS5003;50435;43.700;-79.318;2022-10-16T11:43:22;7;7;
64138;PMS5003;50435;43.700;-79.318;2022-10-16T11:45:54;6;6;
64138;PMS5003;50435;43.700;-79.318;2022-10-16T11:48:26;6;6;
64138;PMS5003;50435;43.700;-79.318;2022-10-16T11:51:00;4;4;
64138;PMS5003;50435;43.700;-79.318;2022-10-16T11:53:39;7;5;
64138;PMS5003;50435;43.700;-79.318;2022-10-16T11:56:13;6;6;
64138;PMS5003;50435;43.700;-79.318;2022-10-16T11:58:47;4;4;
64138;PMS5003;50435;43.700;-79.318;2022-10-16T12:01:22;5;5;
64138;PMS5003;50435;43.700;-79.318;2022-10-16T12:04:01;5;5;
64138;PMS5003;50435;43.700;-79.318;2022-10-16T12:06:40;7;6;
64138;PMS5003;50435;43.700;-79.318;2022-10-16T12:09:13;5;5;
64138;PMS5003;50435;43.700;-79.318;2022-10-16T12:11:46;5;5;
64138;PMS5003;50435;43.700;-79.318;2022-10-16T12:14:22;5;4;
64138;PMS5003;50435;43.700;-79.318;2022-10-16T12:17:03;5;5;
64138;PMS5003;50435;43.700;-79.318;2022-10-16T12:19:56;5;5;
64138;PMS5003;50435;43.700;-79.318;2022-10-16T12:22:26;3;3;
64138;PMS5003;50435;43.700;-79.318;2022-10-16T12:24:56;4;4;
64138;PMS5003;50435;43.700;-79.318;2022-10-16T12:27:25;6;4;
64138;PMS5003;50435;43.700;-79.318;2022-10-16T12:29:56;6;6;
64138;PMS5003;50435;43.700;-79.318;2022-10-16T12:32:28;4;4;
64138;PMS5003;50435;43.700;-79.318;2022-10-16T12:34:58;4;4;
64138;PMS5003;50435;43.700;-79.318;2022-10-16T12:37:29;5;5;
64138;PMS5003;50435;43.700;-79.318;2022-10-16T12:39:59;4;4;
64138;PMS5003;50435;43.700;-79.318;2022-10-16T12:42:38;3;3;
64138;PMS5003;50435;43.700;-79.318;2022-10-16T12:45:21;4;4;
64138;PMS5003;50435;43.700;-79.318;2022-10-16T12:47:53;4;4;
64138;PMS5003;50435;43.700;-79.318;2022-10-16T12:50:23;5;5;
64138;PMS5003;50435;43.700;-79.318;2022-10-16T12:52:53;5;5;
64138;PMS5003;50435;43.700;-79.318;2022-10-16T12:55:21;5;3;
64138;PMS5003;50435;43.700;-79.318;2022-10-16T12:57:57;6;4;
64138;PMS5003;50435;43.700;-79.318;2022-10-16T13:00:37;4;4;
64138;PMS5003;50435;43.700;-79.318;2022-10-16T13:03:20;5;5;
64138;PMS5003;50435;43.700;-79.318;2022-10-16T13:06:06;3;3;
64138;PMS5003;50435;43.700;-79.318;2022-10-16T13:08:45;3;3;
64138;PMS5003;50435;43.700;-79.318;2022-10-16T13:11:45;2;2;
64138;PMS5003;50435;43.700;-79.318;2022-10-16T13:14:44;3;3;
64138;PMS5003;50435;43.700;-79.318;2022-10-16T13:17:27;3;2;
64138;PMS5003;50435;43.700;-79.318;2022-10-16T13:20:05;2;2;
64138;PMS5003;50435;43.700;-79.318;2022-10-16T13:22:44;4;3;
64138;PMS5003;50435;43.700;-79.318;2022-10-16T13:25:21;5;5;
64138;PMS5003;50435;43.700;-79.318;2022-10-16T13:27:59;2;2;
64138;PMS5003;50435;43.700;-79.318;2022-10-16T13:30:28;4;4;
64138;PMS5003;50435;43.700;-79.318;2022-10-16T13:32:59;2;2;
64138;PMS5003;50435;43.700;-79.318;2022-10-16T13:35:29;3;3;
64138;PMS5003;50435;43.700;-79.318;2022-10-16T13:38:11;3;3;
64138;PMS5003;50435;43.700;-79.318;2022-10-16T13:40:56;3;3;
64138;PMS5003;50435;43.700;-79.318;2022-10-16T13:43:27;5;4;
64138;PMS5003;50435;43.700;-79.318;2022-10-16T13:45:59;2;2;
64138;PMS5003;50435;43.700;-79.318;2022-10-16T13:48:28;3;3;
64138;PMS5003;50435;43.700;-79.318;2022-10-16T13:51:00;2;2;
64138;PMS5003;50435;43.700;-79.318;2022-10-16T13:53:30;2;2;
64138;PMS5003;50435;43.700;-79.318;2022-10-16T13:55:59;3;3;
64138;PMS5003;50435;43.700;-79.318;2022-10-16T13:58:27;4;4;
64138;PMS5003;50435;43.700;-79.318;2022-10-16T14:00:56;4;4;
64138;PMS5003;50435;43.700;-79.318;2022-10-16T14:03:25;4;4;
64138;PMS5003;50435;43.700;-79.318;2022-10-16T14:05:55;5;4;
64138;PMS5003;50435;43.700;-79.318;2022-10-16T14:08:25;3;3;
64138;PMS5003;50435;43.700;-79.318;2022-10-16T14:10:55;3;3;
64138;PMS5003;50435;43.700;-79.318;2022-10-16T14:13:27;3;3;
64138;PMS5003;50435;43.700;-79.318;2022-10-16T14:15:57;4;4;
64138;PMS5003;50435;43.700;-79.318;2022-10-16T14:18:31;3;3;
64138;PMS5003;50435;43.700;-79.318;2022-10-16T14:21:03;3;3;
64138;PMS5003;50435;43.700;-79.318;2022-10-16T14:23:34;2;2;
64138;PMS5003;50435;43.700;-79.318;2022-10-16T14:26:20;4;4;
64138;PMS5003;50435;43.700;-79.318;2022-10-16T14:28:51;4;4;
64138;PMS5003;50435;43.700;-79.318;2022-10-16T14:31:31;3;3;
64138;PMS5003;50435;43.700;-79.318;2022-10-16T14:34:00;3;3;
64138;PMS5003;50435;43.700;-79.318;2022-10-16T14:36:27;2;2;
64138;PMS5003;50435;43.700;-79.318;2022-10-16T14:38:58;3;3;
64138;PMS5003;50435;43.700;-79.318;2022-10-16T14:41:28;2;2;
64138;PMS5003;50435;43.700;-79.318;2022-10-16T14:43:58;3;3;
64138;PMS5003;50435;43.700;-79.318;2022-10-16T14:46:31;4;4;
64138;PMS5003;50435;43.700;-79.318;2022-10-16T14:49:03;5;4;
64138;PMS5003;50435;43.700;-79.318;2022-10-16T14:51:41;2;2;
64138;PMS5003;50435;43.700;-79.318;2022-10-16T14:54:09;2;2;
64138;PMS5003;50435;43.700;-79.318;2022-10-16T14:56:42;6;5;
64138;PMS5003;50435;43.700;-79.318;2022-10-16T14:59:14;3;2;
64138;PMS5003;50435;43.700;-79.318;2022-10-16T15:01:46;4;3;
64138;PMS5003;50435;43.700;-79.318;2022-10-16T15:04:14;3;3;
64138;PMS5003;50435;43.700;-79.318;2022-10-16T15:06:42;3;3;
64138;PMS5003;50435;43.700;-79.318;2022-10-16T15:09:09;3;3;
64138;PMS5003;50435;43.700;-79.318;2022-10-16T15:11:37;3;3;
64138;PMS5003;50435;43.700;-79.318;2022-10-16T15:14:04;2;2;
64138;PMS5003;50435;43.700;-79.318;2022-10-16T15:16:32;3;2;
64138;PMS5003;50435;43.700;-79.318;2022-10-16T15:19:00;3;2;
64138;PMS5003;50435;43.700;-79.318;2022-10-16T15:21:29;3;3;
64138;PMS5003;50435;43.700;-79.318;2022-10-16T15:23:59;4;4;
64138;PMS5003;50435;43.700;-79.318;2022-10-16T15:26:28;3;3;
64138;PMS5003;50435;43.700;-79.318;2022-10-16T15:28:56;3;3;
64138;PMS5003;50435;43.700;-79.318;2022-10-16T15:31:24;4;3;
64138;PMS5003;50435;43.700;-79.318;2022-10-16T15:33:52;3;3;
64138;PMS5003;50435;43.700;-79.318;2022-10-16T15:36:25;3;2;
64138;PMS5003;50435;43.700;-79.318;2022-10-16T15:38:53;4;4;
64138;PMS5003;50435;43.700;-79.318;2022-10-16T15:41:21;3;3;
64138;PMS5003;50435;43.700;-79.318;2022-10-16T15:43:48;4;4;
64138;PMS5003;50435;43.700;-79.318;2022-10-16T15:46:18;3;3;
64138;PMS5003;50435;43.700;-79.318;2022-10-16T15:48:47;6;4;
64138;PMS5003;50435;43.700;-79.318;2022-10-16T15:51:15;4;4;
64138;PMS5003;50435;43.700;-79.318;2022-10-16T15:53:43;2;2;
64138;PMS5003;50435;43.700;-79.318;2022-10-16T15:56:11;2;2;
64138;PMS5003;50435;43.700;-79.318;2022-10-16T15:58:40;3;3;
64138;PMS5003;50435;43.700;-79.318;2022-10-16T16:01:08;3;3;
64138;PMS5003;50435;43.700;-79.318;2022-10-16T16:03:37;4;3;
64138;PMS5003;50435;43.700;-79.318;2022-10-16T16:06:06;3;3;
64138;PMS5003;50435;43.700;-79.318;2022-10-16T16:08:35;4;3;
64138;PMS5003;50435;43.700;-79.318;2022-10-16T16:11:03;3;3;
64138;PMS5003;50435;43.700;-79.318;2022-10-16T16:13:32;4;3;
64138;PMS5003;50435;43.700;-79.318;2022-10-16T16:16:00;4;4;
64138;PMS5003;50435;43.700;-79.318;2022-10-16T16:18:28;4;4;
64138;PMS5003;50435;43.700;-79.318;2022-10-16T16:20:55;3;3;
64138;PMS5003;50435;43.700;-79.318;2022-10-16T16:23:24;6;6;
64138;PMS5003;50435;43.700;-79.318;2022-10-16T16:26:04;4;4;
64138;PMS5003;50435;43.700;-79.318;2022-10-16T16:28:33;8;7;
64138;PMS5003;50435;43.700;-79.318;2022-10-16T16:31:01;8;8;
64138;PMS5003;50435;43.700;-79.318;2022-10-16T16:33:28;5;5;
64138;PMS5003;50435;43.700;-79.318;2022-10-16T16:35:57;5;5;
64138;PMS5003;50435;43.700;-79.318;2022-10-16T16:38:25;6;5;